sensor_id;sensor_type;location;lat;lon;timestamp;P1;durP1;ratioP1;P2;durP2;ratioP2
1414;SDS011;702;49.466;11.086;2023-03-29T00:00:00;5.47;;;3.87;;
1414;SDS011;702;49.466;11.086;2023-03-29T00:02:31;3.80;;;3.10;;
1414;SDS011;702;49.466;11.086;2023-03-29T00:05:00;4.60;;;3.17;;
1414;SDS011;702;49.466;11.086;2023-03-29T00:07:29;3.93;;;3.20;;
1414;SDS011;702;49.466;11.086;2023-03-29T00:10:00;6.43;;;3.40;;
1414;SDS011;702;49.466;11.086;2023-03-29T00:12:30;4.27;;;3.23;;
1414;SDS011;702;49.466;11.086;2023-03-29T00:14:58;4.73;;;3.07;;
1414;SDS011;702;49.466;11.086;2023-03-29T00:17:25;4.00;;;3.30;;
1414;SDS011;702;49.466;11.086;2023-03-29T00:19:54;4.90;;;2.90;;
1414;SDS011;702;49.466;11.086;2023-03-29T00:22:24;4.57;;;2.93;;
1414;SDS011;702;49.466;11.086;2023-03-29T00:24:51;7.03;;;3.90;;
1414;SDS011;702;49.466;11.086;2023-03-29T00:27:19;3.30;;;3.00;;
1414;SDS011;702;49.466;11.086;2023-03-29T00:29:46;4.63;;;3.10;;
1414;SDS011;702;49.466;11.086;2023-03-29T00:32:14;5.00;;;3.30;;
1414;SDS011;702;49.466;11.086;2023-03-29T00:34:41;4.20;;;3.57;;
1414;SDS011;702;49.466;11.086;2023-03-29T00:37:10;4.60;;;4.00;;
1414;SDS011;702;49.466;11.086;2023-03-29T00:39:40;4.90;;;3.80;;
1414;SDS011;702;49.466;11.086;2023-03-29T00:42:09;3.83;;;3.43;;
1414;SDS011;702;49.466;11.086;2023-03-29T00:44:51;5.60;;;3.47;;
1414;SDS011;702;49.466;11.086;2023-03-29T00:47:28;5.80;;;3.70;;
1414;SDS011;702;49.466;11.086;2023-03-29T00:49:59;4.77;;;3.33;;
1414;SDS011;702;49.466;11.086;2023-03-29T00:52:32;5.30;;;3.30;;
1414;SDS011;702;49.466;11.086;2023-03-29T00:55:04;4.00;;;3.40;;
1414;SDS011;702;49.466;11.086;2023-03-29T00:57:36;5.30;;;3.57;;
1414;SDS011;702;49.466;11.086;2023-03-29T01:00:08;4.23;;;3.00;;
1414;SDS011;702;49.466;11.086;2023-03-29T01:02:39;8.00;;;3.23;;
1414;SDS011;702;49.466;11.086;2023-03-29T01:05:10;7.40;;;3.60;;
1414;SDS011;702;49.466;11.086;2023-03-29T01:07:42;7.30;;;4.20;;
1414;SDS011;702;49.466;11.086;2023-03-29T01:10:17;5.27;;;3.37;;
1414;SDS011;702;49.466;11.086;2023-03-29T01:12:52;6.57;;;3.07;;
1414;SDS011;702;49.466;11.086;2023-03-29T01:15:29;4.57;;;3.37;;
1414;SDS011;702;49.466;11.086;2023-03-29T01:17:57;8.97;;;3.70;;
1414;SDS011;702;49.466;11.086;2023-03-29T01:20:29;6.00;;;3.70;;
1414;SDS011;702;49.466;11.086;2023-03-29T01:23:18;4.83;;;3.43;;
1414;SDS011;702;49.466;11.086;2023-03-29T01:26:12;5.20;;;4.70;;
1414;SDS011;702;49.466;11.086;2023-03-29T01:28:48;4.30;;;3.57;;
1414;SDS011;702;49.466;11.086;2023-03-29T01:31:21;5.93;;;3.87;;
1414;SDS011;702;49.466;11.086;2023-03-29T01:33:54;5.63;;;3.40;;
1414;SDS011;702;49.466;11.086;2023-03-29T01:36:28;3.60;;;3.27;;
1414;SDS011;702;49.466;11.086;2023-03-29T01:39:02;5.70;;;3.70;;
1414;SDS011;702;49.466;11.086;2023-03-29T01:41:33;4.90;;;3.50;;
1414;SDS011;702;49.466;11.086;2023-03-29T01:44:11;4.40;;;3.10;;
1414;SDS011;702;49.466;11.086;2023-03-29T01:46:44;4.20;;;3.43;;
1414;SDS011;702;49.466;11.086;2023-03-29T01:49:13;5.47;;;4.07;;
1414;SDS011;702;49.466;11.086;2023-03-29T01:51:50;5.30;;;3.10;;
1414;SDS011;702;49.466;11.086;2023-03-29T01:54:24;4.07;;;3.40;;
1414;SDS011;702;49.466;11.086;2023-03-29T01:56:56;3.80;;;3.50;;
1414;SDS011;702;49.466;11.086;2023-03-29T01:59:28;4.43;;;3.80;;
1414;SDS011;702;49.466;11.086;2023-03-29T02:01:59;4.70;;;3.30;;
1414;SDS011;702;49.466;11.086;2023-03-29T02:04:30;6.13;;;3.60;;
1414;SDS011;702;49.466;11.086;2023-03-29T02:07:01;3.73;;;3.40;;
1414;SDS011;702;49.466;11.086;2023-03-29T02:09:31;4.37;;;3.87;;
1414;SDS011;702;49.466;11.086;2023-03-29T02:12:01;3.97;;;3.57;;
1414;SDS011;702;49.466;11.086;2023-03-29T02:14:33;3.60;;;3.30;;
1414;SDS011;702;49.466;11.086;2023-03-29T02:17:10;4.47;;;4.07;;
1414;SDS011;702;49.466;11.086;2023-03-29T02:19:45;4.23;;;3.83;;
1414;SDS011;702;49.466;11.086;2023-03-29T02:22:15;5.60;;;4.43;;
1414;SDS011;702;49.466;11.086;2023-03-29T02:24:49;5.73;;;4.70;;
1414;SDS011;702;49.466;11.086;2023-03-29T02:27:23;6.80;;;4.07;;
1414;SDS011;702;49.466;11.086;2023-03-29T02:29:52;5.03;;;4.47;;
1414;SDS011;702;49.466;11.086;2023-03-29T02:32:20;5.00;;;4.50;;
1414;SDS011;702;49.466;11.086;2023-03-29T02:34:53;4.10;;;3.80;;
1414;SDS011;702;49.466;11.086;2023-03-29T02:37:24;8.30;;;4.67;;
1414;SDS011;702;49.466;11.086;2023-03-29T02:39:55;4.93;;;4.53;;
1414;SDS011;702;49.466;11.086;2023-03-29T02:42:24;4.77;;;4.37;;
1414;SDS011;702;49.466;11.086;2023-03-29T02:44:55;5.93;;;3.87;;
1414;SDS011;702;49.466;11.086;2023-03-29T02:47:27;5.83;;;4.70;;
1414;SDS011;702;49.466;11.086;2023-03-29T02:49:59;8.70;;;4.93;;
1414;SDS011;702;49.466;11.086;2023-03-29T02:52:29;7.90;;;5.20;;
1414;SDS011;702;49.466;11.086;2023-03-29T02:55:01;8.80;;;5.57;;
1414;SDS011;702;49.466;11.086;2023-03-29T02:57:30;5.03;;;4.00;;
1414;SDS011;702;49.466;11.086;2023-03-29T03:00:01;5.23;;;4.17;;
1414;SDS011;702;49.466;11.086;2023-03-29T03:02:31;5.17;;;3.90;;
1414;SDS011;702;49.466;11.086;2023-03-29T03:04:58;5.00;;;4.10;;
1414;SDS011;702;49.466;11.086;2023-03-29T03:07:25;4.20;;;3.43;;
1414;SDS011;702;49.466;11.086;2023-03-29T03:09:54;5.73;;;4.40;;
1414;SDS011;702;49.466;11.086;2023-03-29T03:12:21;4.83;;;4.10;;
1414;SDS011;702;49.466;11.086;2023-03-29T03:14:49;4.53;;;4.13;;
1414;SDS011;702;49.466;11.086;2023-03-29T03:17:18;4.70;;;4.00;;
1414;SDS011;702;49.466;11.086;2023-03-29T03:19:47;4.90;;;4.40;;
1414;SDS011;702;49.466;11.086;2023-03-29T03:22:14;5.90;;;3.77;;
1414;SDS011;702;49.466;11.086;2023-03-29T03:24:41;3.90;;;3.60;;
1414;SDS011;702;49.466;11.086;2023-03-29T03:27:10;6.50;;;4.50;;
1414;SDS011;702;49.466;11.086;2023-03-29T03:29:37;4.10;;;3.70;;
1414;SDS011;702;49.466;11.086;2023-03-29T03:32:05;5.67;;;3.67;;
1414;SDS011;702;49.466;11.086;2023-03-29T03:34:34;4.77;;;4.37;;
1414;SDS011;702;49.466;11.086;2023-03-29T03:37:02;4.97;;;3.93;;
1414;SDS011;702;49.466;11.086;2023-03-29T03:39:30;4.30;;;3.80;;
1414;SDS011;702;49.466;11.086;2023-03-29T03:41:57;5.60;;;4.30;;
1414;SDS011;702;49.466;11.086;2023-03-29T03:44:24;4.23;;;3.40;;
1414;SDS011;702;49.466;11.086;2023-03-29T03:46:52;5.30;;;4.80;;
1414;SDS011;702;49.466;11.086;2023-03-29T03:49:19;4.67;;;4.17;;
1414;SDS011;702;49.466;11.086;2023-03-29T03:51:48;3.83;;;3.53;;
1414;SDS011;702;49.466;11.086;2023-03-29T03:54:17;5.60;;;4.17;;
1414;SDS011;702;49.466;11.086;2023-03-29T03:56:47;4.07;;;3.67;;
1414;SDS011;702;49.466;11.086;2023-03-29T03:59:14;7.43;;;4.13;;
1414;SDS011;702;49.466;11.086;2023-03-29T04:01:41;4.10;;;3.70;;
1414;SDS011;702;49.466;11.086;2023-03-29T04:04:09;4.07;;;3.67;;
1414;SDS011;702;49.466;11.086;2023-03-29T04:06:37;6.27;;;3.50;;
1414;SDS011;702;49.466;11.086;2023-03-29T04:09:06;5.37;;;4.03;;
1414;SDS011;702;49.466;11.086;2023-03-29T04:11:34;5.10;;;3.90;;
1414;SDS011;702;49.466;11.086;2023-03-29T04:14:01;6.17;;;4.33;;
1414;SDS011;702;49.466;11.086;2023-03-29T04:16:31;5.07;;;4.00;;
1414;SDS011;702;49.466;11.086;2023-03-29T04:18:58;4.53;;;3.87;;
1414;SDS011;702;49.466;11.086;2023-03-29T04:21:25;6.20;;;3.80;;
1414;SDS011;702;49.466;11.086;2023-03-29T04:23:52;5.27;;;3.83;;
1414;SDS011;702;49.466;11.086;2023-03-29T04:26:21;5.17;;;3.67;;
1414;SDS011;702;49.466;11.086;2023-03-29T04:28:48;6.03;;;3.97;;
1414;SDS011;702;49.466;11.086;2023-03-29T04:31:16;7.17;;;5.10;;
1414;SDS011;702;49.466;11.086;2023-03-29T04:33:43;4.97;;;4.47;;
1414;SDS011;702;49.466;11.086;2023-03-29T04:36:11;4.93;;;3.97;;
1414;SDS011;702;49.466;11.086;2023-03-29T04:38:40;4.97;;;4.47;;
1414;SDS011;702;49.466;11.086;2023-03-29T04:41:07;4.93;;;4.20;;
1414;SDS011;702;49.466;11.086;2023-03-29T04:43:36;4.53;;;4.13;;
1414;SDS011;702;49.466;11.086;2023-03-29T04:46:03;6.13;;;4.63;;
1414;SDS011;702;49.466;11.086;2023-03-29T04:48:32;5.37;;;4.50;;
1414;SDS011;702;49.466;11.086;2023-03-29T04:51:01;6.47;;;4.60;;
1414;SDS011;702;49.466;11.086;2023-03-29T04:53:28;7.17;;;4.57;;
1414;SDS011;702;49.466;11.086;2023-03-29T04:55:56;6.37;;;4.57;;
1414;SDS011;702;49.466;11.086;2023-03-29T04:58:23;8.20;;;5.07;;
1414;SDS011;702;49.466;11.086;2023-03-29T05:00:55;7.30;;;5.00;;
1414;SDS011;702;49.466;11.086;2023-03-29T05:03:23;4.17;;;3.73;;
1414;SDS011;702;49.466;11.086;2023-03-29T05:05:51;6.57;;;5.37;;
1414;SDS011;702;49.466;11.086;2023-03-29T05:08:18;5.70;;;5.20;;
1414;SDS011;702;49.466;11.086;2023-03-29T05:10:46;6.20;;;5.10;;
1414;SDS011;702;49.466;11.086;2023-03-29T05:13:14;6.23;;;5.27;;
1414;SDS011;702;49.466;11.086;2023-03-29T05:15:41;5.63;;;4.80;;
1414;SDS011;702;49.466;11.086;2023-03-29T05:18:09;7.40;;;5.37;;
1414;SDS011;702;49.466;11.086;2023-03-29T05:20:37;7.10;;;6.10;;
1414;SDS011;702;49.466;11.086;2023-03-29T05:23:04;5.13;;;4.63;;
1414;SDS011;702;49.466;11.086;2023-03-29T05:25:32;5.03;;;4.53;;
1414;SDS011;702;49.466;11.086;2023-03-29T05:28:00;6.03;;;5.40;;
1414;SDS011;702;49.466;11.086;2023-03-29T05:30:27;5.57;;;5.07;;
1414;SDS011;702;49.466;11.086;2023-03-29T05:32:55;7.50;;;5.53;;
1414;SDS011;702;49.466;11.086;2023-03-29T05:35:23;5.67;;;5.07;;
1414;SDS011;702;49.466;11.086;2023-03-29T05:37:50;5.93;;;5.17;;
1414;SDS011;702;49.466;11.086;2023-03-29T05:40:18;6.90;;;5.70;;
1414;SDS011;702;49.466;11.086;2023-03-29T05:42:45;5.77;;;5.17;;
1414;SDS011;702;49.466;11.086;2023-03-29T05:45:13;6.13;;;4.73;;
1414;SDS011;702;49.466;11.086;2023-03-29T05:47:40;6.60;;;4.93;;
1414;SDS011;702;49.466;11.086;2023-03-29T05:50:08;6.87;;;5.07;;
1414;SDS011;702;49.466;11.086;2023-03-29T05:52:37;6.33;;;5.47;;
1414;SDS011;702;49.466;11.086;2023-03-29T05:55:05;6.67;;;5.20;;
1414;SDS011;702;49.466;11.086;2023-03-29T05:57:34;7.03;;;4.90;;
1414;SDS011;702;49.466;11.086;2023-03-29T06:00:02;5.90;;;5.30;;
1414;SDS011;702;49.466;11.086;2023-03-29T06:02:39;6.70;;;5.67;;
1414;SDS011;702;49.466;11.086;2023-03-29T06:05:07;8.80;;;4.90;;
1414;SDS011;702;49.466;11.086;2023-03-29T06:07:34;6.23;;;4.70;;
1414;SDS011;702;49.466;11.086;2023-03-29T06:10:04;6.00;;;5.13;;
1414;SDS011;702;49.466;11.086;2023-03-29T06:12:34;6.40;;;5.53;;
1414;SDS011;702;49.466;11.086;2023-03-29T06:15:02;6.73;;;5.30;;
1414;SDS011;702;49.466;11.086;2023-03-29T06:17:30;6.03;;;5.27;;
1414;SDS011;702;49.466;11.086;2023-03-29T06:19:58;7.30;;;5.87;;
1414;SDS011;702;49.466;11.086;2023-03-29T06:22:26;5.60;;;5.10;;
1414;SDS011;702;49.466;11.086;2023-03-29T06:24:53;5.87;;;5.27;;
1414;SDS011;702;49.466;11.086;2023-03-29T06:27:22;5.37;;;4.87;;
1414;SDS011;702;49.466;11.086;2023-03-29T06:29:49;6.47;;;5.30;;
1414;SDS011;702;49.466;11.086;2023-03-29T06:32:16;5.97;;;5.47;;
1414;SDS011;702;49.466;11.086;2023-03-29T06:34:44;6.37;;;5.13;;
1414;SDS011;702;49.466;11.086;2023-03-29T06:37:11;6.03;;;5.43;;
1414;SDS011;702;49.466;11.086;2023-03-29T06:39:38;6.13;;;5.37;;
1414;SDS011;702;49.466;11.086;2023-03-29T06:42:06;5.70;;;5.20;;
1414;SDS011;702;49.466;11.086;2023-03-29T06:44:35;6.33;;;5.60;;
1414;SDS011;702;49.466;11.086;2023-03-29T06:47:02;5.90;;;5.30;;
1414;SDS011;702;49.466;11.086;2023-03-29T06:49:29;8.37;;;5.70;;
1414;SDS011;702;49.466;11.086;2023-03-29T06:51:56;7.00;;;5.77;;
1414;SDS011;702;49.466;11.086;2023-03-29T06:54:24;6.03;;;5.53;;
1414;SDS011;702;49.466;11.086;2023-03-29T06:56:51;6.70;;;5.50;;
1414;SDS011;702;49.466;11.086;2023-03-29T06:59:18;7.00;;;5.63;;
1414;SDS011;702;49.466;11.086;2023-03-29T07:01:47;6.40;;;5.80;;
1414;SDS011;702;49.466;11.086;2023-03-29T07:04:16;5.90;;;4.73;;
1414;SDS011;702;49.466;11.086;2023-03-29T07:06:44;7.83;;;5.30;;
1414;SDS011;702;49.466;11.086;2023-03-29T07:09:12;5.33;;;4.80;;
1414;SDS011;702;49.466;11.086;2023-03-29T07:11:40;5.97;;;5.27;;
1414;SDS011;702;49.466;11.086;2023-03-29T07:14:08;6.47;;;5.20;;
1414;SDS011;702;49.466;11.086;2023-03-29T07:16:35;5.17;;;4.67;;
1414;SDS011;702;49.466;11.086;2023-03-29T07:19:04;8.10;;;4.90;;
1414;SDS011;702;49.466;11.086;2023-03-29T07:21:33;5.77;;;4.90;;
1414;SDS011;702;49.466;11.086;2023-03-29T07:24:00;5.83;;;4.90;;
1414;SDS011;702;49.466;11.086;2023-03-29T07:26:28;6.63;;;5.63;;
1414;SDS011;702;49.466;11.086;2023-03-29T07:28:56;7.20;;;5.53;;
1414;SDS011;702;49.466;11.086;2023-03-29T07:31:24;6.97;;;4.60;;
1414;SDS011;702;49.466;11.086;2023-03-29T07:33:53;7.80;;;4.97;;
1414;SDS011;702;49.466;11.086;2023-03-29T07:36:22;4.70;;;4.30;;
1414;SDS011;702;49.466;11.086;2023-03-29T07:38:49;6.47;;;4.47;;
1414;SDS011;702;49.466;11.086;2023-03-29T07:41:16;8.03;;;4.77;;
1414;SDS011;702;49.466;11.086;2023-03-29T07:43:43;8.53;;;4.70;;
1414;SDS011;702;49.466;11.086;2023-03-29T07:46:10;6.27;;;4.10;;
1414;SDS011;702;49.466;11.086;2023-03-29T07:48:38;5.83;;;5.03;;
1414;SDS011;702;49.466;11.086;2023-03-29T07:51:06;5.90;;;4.60;;
1414;SDS011;702;49.466;11.086;2023-03-29T07:53:34;4.70;;;3.83;;
1414;SDS011;702;49.466;11.086;2023-03-29T07:56:03;5.30;;;4.43;;
1414;SDS011;702;49.466;11.086;2023-03-29T07:58:31;4.80;;;4.30;;
1414;SDS011;702;49.466;11.086;2023-03-29T08:00:58;8.30;;;5.33;;
1414;SDS011;702;49.466;11.086;2023-03-29T08:03:25;8.83;;;4.67;;
1414;SDS011;702;49.466;11.086;2023-03-29T08:05:52;5.47;;;4.27;;
1414;SDS011;702;49.466;11.086;2023-03-29T08:08:22;6.30;;;4.60;;
1414;SDS011;702;49.466;11.086;2023-03-29T08:10:50;8.57;;;4.60;;
1414;SDS011;702;49.466;11.086;2023-03-29T08:13:19;6.00;;;4.50;;
1414;SDS011;702;49.466;11.086;2023-03-29T08:15:46;5.90;;;4.73;;
1414;SDS011;702;49.466;11.086;2023-03-29T08:18:14;6.00;;;4.80;;
1414;SDS011;702;49.466;11.086;2023-03-29T08:20:41;6.63;;;4.40;;
1414;SDS011;702;49.466;11.086;2023-03-29T08:23:08;5.10;;;3.97;;
1414;SDS011;702;49.466;11.086;2023-03-29T08:25:35;6.60;;;4.33;;
1414;SDS011;702;49.466;11.086;2023-03-29T08:28:04;5.70;;;5.00;;
1414;SDS011;702;49.466;11.086;2023-03-29T08:30:32;5.00;;;4.40;;
1414;SDS011;702;49.466;11.086;2023-03-29T08:32:59;7.03;;;4.80;;
1414;SDS011;702;49.466;11.086;2023-03-29T08:35:26;7.17;;;4.80;;
1414;SDS011;702;49.466;11.086;2023-03-29T08:37:53;5.43;;;4.90;;
1414;SDS011;702;49.466;11.086;2023-03-29T08:40:22;5.93;;;4.70;;
1414;SDS011;702;49.466;11.086;2023-03-29T08:42:55;10.30;;;5.03;;
1414;SDS011;702;49.466;11.086;2023-03-29T08:45:40;7.97;;;4.73;;
1414;SDS011;702;49.466;11.086;2023-03-29T08:48:21;5.47;;;4.60;;
1414;SDS011;702;49.466;11.086;2023-03-29T08:50:54;6.50;;;5.00;;
1414;SDS011;702;49.466;11.086;2023-03-29T08:53:26;9.20;;;4.60;;
1414;SDS011;702;49.466;11.086;2023-03-29T08:55:57;7.30;;;4.30;;
1414;SDS011;702;49.466;11.086;2023-03-29T08:58:31;5.50;;;5.00;;
1414;SDS011;702;49.466;11.086;2023-03-29T09:01:01;5.33;;;4.60;;
1414;SDS011;702;49.466;11.086;2023-03-29T09:03:33;5.30;;;4.63;;
1414;SDS011;702;49.466;11.086;2023-03-29T09:06:04;6.10;;;4.90;;
1414;SDS011;702;49.466;11.086;2023-03-29T09:08:33;5.30;;;4.80;;
1414;SDS011;702;49.466;11.086;2023-03-29T09:11:15;5.80;;;4.13;;
1414;SDS011;702;49.466;11.086;2023-03-29T09:14:00;8.67;;;7.00;;
1414;SDS011;702;49.466;11.086;2023-03-29T09:16:47;5.70;;;4.60;;
1414;SDS011;702;49.466;11.086;2023-03-29T09:19:24;4.63;;;4.23;;
1414;SDS011;702;49.466;11.086;2023-03-29T09:22:00;4.60;;;4.20;;
1414;SDS011;702;49.466;11.086;2023-03-29T09:24:37;5.47;;;4.60;;
1414;SDS011;702;49.466;11.086;2023-03-29T09:27:13;5.77;;;3.77;;
1414;SDS011;702;49.466;11.086;2023-03-29T09:29:54;5.47;;;4.10;;
1414;SDS011;702;49.466;11.086;2023-03-29T09:32:30;4.30;;;3.60;;
1414;SDS011;702;49.466;11.086;2023-03-29T09:35:09;4.57;;;3.27;;
1414;SDS011;702;49.466;11.086;2023-03-29T09:37:42;5.47;;;2.77;;
1414;SDS011;702;49.466;11.086;2023-03-29T09:40:13;3.90;;;3.50;;
1414;SDS011;702;49.466;11.086;2023-03-29T09:42:44;6.20;;;3.33;;
1414;SDS011;702;49.466;11.086;2023-03-29T09:45:16;2.50;;;2.30;;
1414;SDS011;702;49.466;11.086;2023-03-29T09:47:44;5.20;;;3.43;;
1414;SDS011;702;49.466;11.086;2023-03-29T09:50:16;4.90;;;3.50;;
1414;SDS011;702;49.466;11.086;2023-03-29T09:52:49;3.23;;;2.70;;
1414;SDS011;702;49.466;11.086;2023-03-29T09:55:24;4.90;;;3.63;;
1414;SDS011;702;49.466;11.086;2023-03-29T09:57:54;3.53;;;3.20;;
1414;SDS011;702;49.466;11.086;2023-03-29T10:00:25;3.43;;;2.47;;
1414;SDS011;702;49.466;11.086;2023-03-29T10:02:53;23.43;;;6.00;;
1414;SDS011;702;49.466;11.086;2023-03-29T10:05:24;4.83;;;2.73;;
1414;SDS011;702;49.466;11.086;2023-03-29T10:07:56;2.67;;;2.30;;
1414;SDS011;702;49.466;11.086;2023-03-29T10:10:28;3.67;;;2.73;;
1414;SDS011;702;49.466;11.086;2023-03-29T10:12:58;2.57;;;2.23;;
1414;SDS011;702;49.466;11.086;2023-03-29T10:15:31;2.70;;;1.97;;
1414;SDS011;702;49.466;11.086;2023-03-29T10:17:59;3.50;;;1.90;;
1414;SDS011;702;49.466;11.086;2023-03-29T10:20:28;4.30;;;2.47;;
1414;SDS011;702;49.466;11.086;2023-03-29T10:22:57;2.30;;;2.10;;
1414;SDS011;702;49.466;11.086;2023-03-29T10:25:25;3.40;;;2.30;;
1414;SDS011;702;49.466;11.086;2023-03-29T10:28:01;6.00;;;2.23;;
1414;SDS011;702;49.466;11.086;2023-03-29T10:30:33;2.53;;;1.93;;
1414;SDS011;702;49.466;11.086;2023-03-29T10:33:03;3.03;;;2.10;;
1414;SDS011;702;49.466;11.086;2023-03-29T10:35:40;2.57;;;1.93;;
1414;SDS011;702;49.466;11.086;2023-03-29T10:38:09;3.03;;;1.87;;
1414;SDS011;702;49.466;11.086;2023-03-29T10:40:41;2.57;;;2.37;;
1414;SDS011;702;49.466;11.086;2023-03-29T10:43:12;6.10;;;2.43;;
1414;SDS011;702;49.466;11.086;2023-03-29T10:45:48;3.03;;;2.70;;
1414;SDS011;702;49.466;11.086;2023-03-29T10:48:17;6.63;;;2.23;;
1414;SDS011;702;49.466;11.086;2023-03-29T10:50:56;2.30;;;1.70;;
1414;SDS011;702;49.466;11.086;2023-03-29T10:53:27;1.60;;;1.40;;
1414;SDS011;702;49.466;11.086;2023-03-29T10:56:00;3.17;;;1.73;;
1414;SDS011;702;49.466;11.086;2023-03-29T10:58:54;2.20;;;1.90;;
1414;SDS011;702;49.466;11.086;2023-03-29T11:01:49;2.63;;;2.23;;
1414;SDS011;702;49.466;11.086;2023-03-29T11:04:51;4.20;;;1.50;;
1414;SDS011;702;49.466;11.086;2023-03-29T11:07:30;5.37;;;1.70;;
1414;SDS011;702;49.466;11.086;2023-03-29T11:10:04;2.07;;;1.80;;
1414;SDS011;702;49.466;11.086;2023-03-29T11:12:53;3.90;;;1.70;;
1414;SDS011;702;49.466;11.086;2023-03-29T11:15:32;2.50;;;1.93;;
1414;SDS011;702;49.466;11.086;2023-03-29T11:18:17;3.10;;;2.03;;
1414;SDS011;702;49.466;11.086;2023-03-29T11:21:02;3.80;;;1.73;;
1414;SDS011;702;49.466;11.086;2023-03-29T11:23:43;2.90;;;1.93;;
1414;SDS011;702;49.466;11.086;2023-03-29T11:26:16;12.50;;;1.73;;
1414;SDS011;702;49.466;11.086;2023-03-29T11:28:49;2.80;;;1.80;;
1414;SDS011;702;49.466;11.086;2023-03-29T11:31:29;2.70;;;1.80;;
1414;SDS011;702;49.466;11.086;2023-03-29T11:34:12;2.27;;;1.67;;
1414;SDS011;702;49.466;11.086;2023-03-29T11:36:50;2.73;;;1.70;;
1414;SDS011;702;49.466;11.086;2023-03-29T11:39:27;2.17;;;1.77;;
1414;SDS011;702;49.466;11.086;2023-03-29T11:42:05;4.57;;;2.30;;
1414;SDS011;702;49.466;11.086;2023-03-29T11:44:37;4.33;;;1.93;;
1414;SDS011;702;49.466;11.086;2023-03-29T11:47:08;3.70;;;2.37;;
1414;SDS011;702;49.466;11.086;2023-03-29T11:49:42;3.33;;;2.50;;
1414;SDS011;702;49.466;11.086;2023-03-29T11:52:13;3.30;;;2.47;;
1414;SDS011;702;49.466;11.086;2023-03-29T11:54:47;3.20;;;1.93;;
1414;SDS011;702;49.466;11.086;2023-03-29T11:57:20;2.60;;;2.37;;
1414;SDS011;702;49.466;11.086;2023-03-29T11:59:52;4.93;;;2.30;;
1414;SDS011;702;49.466;11.086;2023-03-29T12:02:27;3.83;;;2.47;;
1414;SDS011;702;49.466;11.086;2023-03-29T12:05:01;3.17;;;1.87;;
1414;SDS011;702;49.466;11.086;2023-03-29T12:07:36;2.40;;;2.13;;
1414;SDS011;702;49.466;11.086;2023-03-29T12:10:13;4.83;;;2.03;;
1414;SDS011;702;49.466;11.086;2023-03-29T12:12:44;3.37;;;2.17;;
1414;SDS011;702;49.466;11.086;2023-03-29T12:15:17;2.80;;;2.60;;
1414;SDS011;702;49.466;11.086;2023-03-29T12:17:50;3.30;;;2.40;;
1414;SDS011;702;49.466;11.086;2023-03-29T12:20:29;5.00;;;3.60;;
1414;SDS011;702;49.466;11.086;2023-03-29T12:23:00;2.40;;;2.13;;
1414;SDS011;702;49.466;11.086;2023-03-29T12:25:29;2.40;;;2.20;;
1414;SDS011;702;49.466;11.086;2023-03-29T12:28:06;3.83;;;1.93;;
1414;SDS011;702;49.466;11.086;2023-03-29T12:30:54;3.43;;;1.90;;
1414;SDS011;702;49.466;11.086;2023-03-29T12:33:39;2.30;;;2.00;;
1414;SDS011;702;49.466;11.086;2023-03-29T12:36:41;2.33;;;2.13;;
1414;SDS011;702;49.466;11.086;2023-03-29T12:39:49;3.23;;;1.90;;
1414;SDS011;702;49.466;11.086;2023-03-29T12:42:18;2.33;;;2.13;;
1414;SDS011;702;49.466;11.086;2023-03-29T12:44:48;3.33;;;1.53;;
1414;SDS011;702;49.466;11.086;2023-03-29T12:47:23;3.13;;;2.07;;
1414;SDS011;702;49.466;11.086;2023-03-29T12:49:56;3.47;;;2.17;;
1414;SDS011;702;49.466;11.086;2023-03-29T12:52:29;3.70;;;1.77;;
1414;SDS011;702;49.466;11.086;2023-03-29T12:54:59;2.67;;;1.63;;
1414;SDS011;702;49.466;11.086;2023-03-29T12:57:37;2.93;;;2.20;;
1414;SDS011;702;49.466;11.086;2023-03-29T13:00:09;2.33;;;1.43;;
1414;SDS011;702;49.466;11.086;2023-03-29T13:02:56;2.10;;;1.90;;
1414;SDS011;702;49.466;11.086;2023-03-29T13:05:29;2.30;;;1.40;;
1414;SDS011;702;49.466;11.086;2023-03-29T13:08:08;2.37;;;1.23;;
1414;SDS011;702;49.466;11.086;2023-03-29T13:10:51;1.67;;;1.57;;
1414;SDS011;702;49.466;11.086;2023-03-29T13:13:20;3.60;;;1.40;;
1414;SDS011;702;49.466;11.086;2023-03-29T13:15:52;6.03;;;2.20;;
1414;SDS011;702;49.466;11.086;2023-03-29T13:18:32;1.60;;;1.30;;
1414;SDS011;702;49.466;11.086;2023-03-29T13:21:15;2.13;;;1.93;;
1414;SDS011;702;49.466;11.086;2023-03-29T13:23:55;3.73;;;1.30;;
1414;SDS011;702;49.466;11.086;2023-03-29T13:29:33;2.30;;;1.67;;
1414;SDS011;702;49.466;11.086;2023-03-29T13:32:25;6.00;;;2.00;;
1414;SDS011;702;49.466;11.086;2023-03-29T13:35:15;2.43;;;1.80;;
1414;SDS011;702;49.466;11.086;2023-03-29T13:37:56;3.70;;;1.90;;
1414;SDS011;702;49.466;11.086;2023-03-29T13:40:46;2.90;;;2.40;;
1414;SDS011;702;49.466;11.086;2023-03-29T13:43:30;2.90;;;2.30;;
1414;SDS011;702;49.466;11.086;2023-03-29T13:46:15;3.37;;;2.30;;
1414;SDS011;702;49.466;11.086;2023-03-29T13:48:56;4.40;;;2.40;;
1414;SDS011;702;49.466;11.086;2023-03-29T13:51:32;3.60;;;1.90;;
1414;SDS011;702;49.466;11.086;2023-03-29T13:54:13;2.50;;;2.23;;
1414;SDS011;702;49.466;11.086;2023-03-29T13:56:58;5.50;;;2.47;;
1414;SDS011;702;49.466;11.086;2023-03-29T13:59:32;3.43;;;2.40;;
1414;SDS011;702;49.466;11.086;2023-03-29T14:02:08;4.03;;;2.90;;
1414;SDS011;702;49.466;11.086;2023-03-29T14:04:46;3.63;;;2.20;;
1414;SDS011;702;49.466;11.086;2023-03-29T14:07:17;4.47;;;2.23;;
1414;SDS011;702;49.466;11.086;2023-03-29T14:09:50;2.40;;;2.20;;
1414;SDS011;702;49.466;11.086;2023-03-29T14:12:20;2.80;;;2.33;;
1414;SDS011;702;49.466;11.086;2023-03-29T14:14:48;4.27;;;2.30;;
1414;SDS011;702;49.466;11.086;2023-03-29T14:17:18;5.77;;;2.70;;
1414;SDS011;702;49.466;11.086;2023-03-29T14:19:49;7.43;;;2.43;;
1414;SDS011;702;49.466;11.086;2023-03-29T14:22:17;5.07;;;2.60;;
1414;SDS011;702;49.466;11.086;2023-03-29T14:24:46;2.60;;;2.40;;
1414;SDS011;702;49.466;11.086;2023-03-29T14:27:17;4.83;;;2.70;;
1414;SDS011;702;49.466;11.086;2023-03-29T14:29:48;4.20;;;2.87;;
1414;SDS011;702;49.466;11.086;2023-03-29T14:32:18;3.67;;;2.53;;
1414;SDS011;702;49.466;11.086;2023-03-29T14:34:53;4.57;;;3.10;;
1414;SDS011;702;49.466;11.086;2023-03-29T14:37:21;8.37;;;3.30;;
1414;SDS011;702;49.466;11.086;2023-03-29T14:39:51;6.80;;;3.37;;
1414;SDS011;702;49.466;11.086;2023-03-29T14:42:24;3.60;;;2.90;;
1414;SDS011;702;49.466;11.086;2023-03-29T14:44:56;4.27;;;2.50;;
1414;SDS011;702;49.466;11.086;2023-03-29T14:47:26;3.20;;;2.30;;
1414;SDS011;702;49.466;11.086;2023-03-29T14:49:56;3.47;;;2.50;;
1414;SDS011;702;49.466;11.086;2023-03-29T14:52:25;6.80;;;2.90;;
1414;SDS011;702;49.466;11.086;2023-03-29T14:54:57;6.20;;;3.20;;
1414;SDS011;702;49.466;11.086;2023-03-29T14:57:31;4.73;;;2.80;;
1414;SDS011;702;49.466;11.086;2023-03-29T15:00:02;3.77;;;2.77;;
1414;SDS011;702;49.466;11.086;2023-03-29T15:02:47;3.73;;;2.67;;
1414;SDS011;702;49.466;11.086;2023-03-29T15:08:06;3.20;;;2.20;;
1414;SDS011;702;49.466;11.086;2023-03-29T15:10:38;3.93;;;2.53;;
1414;SDS011;702;49.466;11.086;2023-03-29T15:13:10;3.63;;;2.60;;
1414;SDS011;702;49.466;11.086;2023-03-29T15:15:45;3.30;;;2.50;;
1414;SDS011;702;49.466;11.086;2023-03-29T15:18:16;3.50;;;2.30;;
1414;SDS011;702;49.466;11.086;2023-03-29T15:20:45;4.57;;;2.30;;
1414;SDS011;702;49.466;11.086;2023-03-29T15:23:19;5.23;;;2.47;;
1414;SDS011;702;49.466;11.086;2023-03-29T15:25:54;3.40;;;2.27;;
1414;SDS011;702;49.466;11.086;2023-03-29T15:28:25;7.60;;;2.70;;
1414;SDS011;702;49.466;11.086;2023-03-29T15:30:59;3.83;;;3.07;;
1414;SDS011;702;49.466;11.086;2023-03-29T15:33:33;3.50;;;2.63;;
1414;SDS011;702;49.466;11.086;2023-03-29T15:36:02;4.80;;;2.80;;
1414;SDS011;702;49.466;11.086;2023-03-29T15:38:32;4.50;;;2.80;;
1414;SDS011;702;49.466;11.086;2023-03-29T15:41:00;3.27;;;2.90;;
1414;SDS011;702;49.466;11.086;2023-03-29T15:43:29;4.30;;;2.47;;
1414;SDS011;702;49.466;11.086;2023-03-29T15:45:56;5.60;;;2.70;;
1414;SDS011;702;49.466;11.086;2023-03-29T15:48:24;4.23;;;2.80;;